TimeEDT,TemperatureF,Dew PointF,Humidity,Sea Level PressureIn,VisibilityMPH,Wind Direction,Wind SpeedMPH,Gust SpeedMPH,PrecipitationIn,Events,Conditions,WindDirDegrees,DateUTC
12:22 AM,59.0,55.4,88,29.92,10.0,NW,4.6,-,N/A,,Overcast,310,2012-10-03 04:22:00
12:43 AM,59.0,53.6,82,29.91,10.0,NW,5.8,-,N/A,,Overcast,320,2012-10-03 04:43:00
12:53 AM,59.0,54.0,83,29.91,10.0,NNW,4.6,-,N/A,,Overcast,330,2012-10-03 04:53:00
1:49 AM,60.8,55.4,82,29.90,10.0,North,5.8,-,N/A,,Overcast,360,2012-10-03 05:49:00
1:53 AM,60.1,55.0,83,29.90,10.0,North,4.6,-,N/A,,Overcast,360,2012-10-03 05:53:00
2:53 AM,60.1,54.0,80,29.92,10.0,Calm,Calm,-,N/A,,Overcast,0,2012-10-03 06:53:00
3:53 AM,59.0,55.9,90,29.91,10.0,Calm,Calm,-,0.06,,Overcast,0,2012-10-03 07:53:00
4:33 AM,60.8,55.4,82,29.93,10.0,Calm,Calm,-,N/A,,Overcast,0,2012-10-03 08:33:00
4:47 AM,60.8,55.4,82,29.94,10.0,NW,3.5,-,N/A,,Overcast,310,2012-10-03 08:47:00
4:53 AM,60.1,55.9,86,29.94,10.0,Calm,Calm,-,N/A,,Overcast,0,2012-10-03 08:53:00
5:48 AM,60.8,55.4,82,29.95,6.0,Calm,Calm,-,N/A,Rain,Light Rain,0,2012-10-03 09:48:00
5:53 AM,61.0,55.9,83,29.95,6.0,Calm,Calm,-,0.00,Rain,Light Rain,0,2012-10-03 09:53:00
6:48 AM,60.8,57.2,88,29.96,2.5,Calm,Calm,-,0.02,Rain,Light Rain,0,2012-10-03 10:48:00
6:53 AM,60.1,57.9,93,29.97,2.5,Calm,Calm,-,0.02,Rain,Light Rain,0,2012-10-03 10:53:00
7:11 AM,60.8,57.2,88,29.97,1.0,Calm,Calm,-,0.00,,Light Drizzle,0,2012-10-03 11:11:00
7:53 AM,60.1,57.9,93,29.98,1.0,South,5.8,-,0.00,,Overcast,180,2012-10-03 11:53:00
8:12 AM,60.8,57.2,88,29.99,0.5,South,4.6,-,N/A,,Overcast,180,2012-10-03 12:12:00
8:50 AM,60.8,57.2,88,29.99,2.0,Calm,Calm,-,N/A,,Overcast,0,2012-10-03 12:50:00
8:53 AM,60.1,57.9,93,29.99,2.0,West,4.6,-,N/A,,Overcast,280,2012-10-03 12:53:00
9:02 AM,60.8,59.0,94,29.99,2.0,Calm,Calm,-,N/A,,Overcast,0,2012-10-03 13:02:00
9:24 AM,62.6,60.8,94,30.00,2.0,Calm,Calm,-,N/A,,Overcast,0,2012-10-03 13:24:00
9:53 AM,62.1,59.0,90,30.01,3.0,South,4.6,-,N/A,,Overcast,190,2012-10-03 13:53:00
10:00 AM,62.6,59.0,88,30.01,3.0,South,5.8,-,N/A,,Overcast,170,2012-10-03 14:00:00
10:22 AM,62.6,59.0,88,30.02,6.0,South,6.9,-,N/A,,Overcast,180,2012-10-03 14:22:00
10:32 AM,62.6,59.0,88,30.02,6.0,SSW,8.1,-,N/A,,Overcast,200,2012-10-03 14:32:00
10:53 AM,63.0,59.0,87,30.01,6.0,South,9.2,-,N/A,,Overcast,180,2012-10-03 14:53:00
11:53 AM,64.0,59.0,84,30.02,9.0,South,8.1,-,N/A,,Overcast,190,2012-10-03 15:53:00
12:53 PM,66.9,55.9,68,30.02,10.0,South,12.7,-,N/A,,Overcast,190,2012-10-03 16:53:00
1:53 PM,64.9,54.0,68,30.02,10.0,SSW,15.0,-,N/A,,Overcast,210,2012-10-03 17:53:00
2:23 PM,64.4,55.4,73,30.02,10.0,South,12.7,-,N/A,,Overcast,190,2012-10-03 18:23:00
2:41 PM,64.4,55.4,73,30.02,10.0,SSW,11.5,-,N/A,,Overcast,200,2012-10-03 18:41:00
2:53 PM,64.9,54.0,68,30.02,10.0,South,13.8,-,N/A,,Overcast,190,2012-10-03 18:53:00
3:53 PM,64.0,54.0,70,30.03,10.0,South,15.0,-,N/A,,Overcast,190,2012-10-03 19:53:00
4:15 PM,64.4,53.6,68,30.03,10.0,South,16.1,-,N/A,,Overcast,190,2012-10-03 20:15:00
4:53 PM,63.0,53.1,70,30.04,10.0,South,10.4,-,N/A,,Overcast,190,2012-10-03 20:53:00
5:21 PM,64.4,53.6,68,30.04,10.0,South,11.5,-,N/A,,Overcast,170,2012-10-03 21:21:00
5:53 PM,64.0,54.0,70,30.04,10.0,South,8.1,-,N/A,,Overcast,180,2012-10-03 21:53:00
6:53 PM,64.0,53.1,67,30.06,10.0,South,8.1,-,N/A,,Overcast,170,2012-10-03 22:53:00
7:53 PM,63.0,55.0,75,30.06,10.0,SE,5.8,-,N/A,,Overcast,140,2012-10-03 23:53:00
8:53 PM,62.1,55.0,78,30.08,10.0,SE,6.9,-,N/A,,Overcast,140,2012-10-04 00:53:00
9:53 PM,62.1,55.0,78,30.08,10.0,South,8.1,-,N/A,,Overcast,170,2012-10-04 01:53:00
10:53 PM,60.8,55.4,82,30.09,10.0,SSE,5.8,-,N/A,,Overcast,160,2012-10-04 02:53:00
11:53 PM,60.1,55.0,83,30.09,10.0,SSE,6.9,-,N/A,,Mostly Cloudy,150,2012-10-04 03:53:00